sensor_id;sensor_type;location;lat;lon;timestamp;pressure;altitude;pressure_sealevel;temperature;humidity
22283;BME280;11310;51.528;21.204;2023-03-01T00:02:05;101351.34;;;-4.17;100.00
22283;BME280;11310;51.528;21.204;2023-03-01T00:04:34;101354.63;;;-4.21;100.00
22283;BME280;11310;51.528;21.204;2023-03-01T00:07:04;101360.50;;;-4.25;100.00
22283;BME280;11310;51.528;21.204;2023-03-01T00:09:35;101355.19;;;-4.30;100.00
22283;BME280;11310;51.528;21.204;2023-03-01T00:12:04;101359.44;;;-4.30;100.00
22283;BME280;11310;51.528;21.204;2023-03-01T00:14:33;101363.69;;;-4.31;100.00
22283;BME280;11310;51.528;21.204;2023-03-01T00:17:02;101355.97;;;-4.32;100.00
22283;BME280;11310;51.528;21.204;2023-03-01T00:19:32;101349.03;;;-4.35;100.00
22283;BME280;11310;51.528;21.204;2023-03-01T00:22:02;101349.09;;;-4.33;100.00
22283;BME280;11310;51.528;21.204;2023-03-01T00:24:32;101347.50;;;-4.30;100.00
22283;BME280;11310;51.528;21.204;2023-03-01T00:27:00;101348.41;;;-4.29;100.00
22283;BME280;11310;51.528;21.204;2023-03-01T00:29:29;101343.28;;;-4.28;100.00
22283;BME280;11310;51.528;21.204;2023-03-01T00:31:58;101345.84;;;-4.29;100.00
22283;BME280;11310;51.528;21.204;2023-03-01T00:34:27;101346.03;;;-4.23;100.00
22283;BME280;11310;51.528;21.204;2023-03-01T00:36:56;101340.03;;;-4.24;100.00
22283;BME280;11310;51.528;21.204;2023-03-01T00:39:33;101329.78;;;-4.24;100.00
22283;BME280;11310;51.528;21.204;2023-03-01T00:42:02;101329.69;;;-4.27;100.00
22283;BME280;11310;51.528;21.204;2023-03-01T00:44:31;101327.59;;;-4.38;100.00
22283;BME280;11310;51.528;21.204;2023-03-01T00:47:01;101330.81;;;-4.44;100.00
22283;BME280;11310;51.528;21.204;2023-03-01T00:49:31;101322.22;;;-4.46;100.00
22283;BME280;11310;51.528;21.204;2023-03-01T00:52:00;101331.47;;;-4.49;100.00
22283;BME280;11310;51.528;21.204;2023-03-01T00:54:29;101340.72;;;-4.53;100.00
22283;BME280;11310;51.528;21.204;2023-03-01T00:56:59;101337.84;;;-4.62;100.00
22283;BME280;11310;51.528;21.204;2023-03-01T00:59:28;101336.63;;;-4.71;100.00
22283;BME280;11310;51.528;21.204;2023-03-01T01:01:57;101331.63;;;-4.68;100.00
22283;BME280;11310;51.528;21.204;2023-03-01T01:04:26;101329.19;;;-4.65;100.00
22283;BME280;11310;51.528;21.204;2023-03-01T01:06:55;101332.59;;;-4.65;100.00
22283;BME280;11310;51.528;21.204;2023-03-01T01:09:24;101329.19;;;-4.65;100.00
22283;BME280;11310;51.528;21.204;2023-03-01T01:11:53;101319.88;;;-4.63;100.00
22283;BME280;11310;51.528;21.204;2023-03-01T01:14:23;101318.19;;;-4.63;100.00
22283;BME280;11310;51.528;21.204;2023-03-01T01:16:51;101314.81;;;-4.62;100.00
22283;BME280;11310;51.528;21.204;2023-03-01T01:19:20;101312.31;;;-4.60;100.00
22283;BME280;11310;51.528;21.204;2023-03-01T01:21:49;101305.47;;;-4.60;100.00
22283;BME280;11310;51.528;21.204;2023-03-01T01:24:18;101303.66;;;-4.64;100.00
22283;BME280;11310;51.528;21.204;2023-03-01T01:26:47;101308.66;;;-4.67;100.00
22283;BME280;11310;51.528;21.204;2023-03-01T01:29:16;101300.00;;;-4.70;100.00
22283;BME280;11310;51.528;21.204;2023-03-01T01:31:46;101303.38;;;-4.71;100.00
22283;BME280;11310;51.528;21.204;2023-03-01T01:34:19;101299.25;;;-4.68;100.00
22283;BME280;11310;51.528;21.204;2023-03-01T01:36:49;101291.72;;;-4.63;100.00
22283;BME280;11310;51.528;21.204;2023-03-01T01:39:18;101290.94;;;-4.61;100.00
22283;BME280;11310;51.528;21.204;2023-03-01T01:41:47;101290.09;;;-4.61;100.00
22283;BME280;11310;51.528;21.204;2023-03-01T01:44:18;101292.47;;;-4.66;100.00
22283;BME280;11310;51.528;21.204;2023-03-01T01:46:50;101293.91;;;-4.74;100.00
22283;BME280;11310;51.528;21.204;2023-03-01T01:49:26;101292.88;;;-4.79;100.00
22283;BME280;11310;51.528;21.204;2023-03-01T01:52:02;101289.41;;;-4.81;100.00
22283;BME280;11310;51.528;21.204;2023-03-01T01:54:39;101289.06;;;-4.90;100.00
22283;BME280;11310;51.528;21.204;2023-03-01T01:57:13;101286.06;;;-5.02;100.00
22283;BME280;11310;51.528;21.204;2023-03-01T01:59:46;101281.63;;;-5.07;100.00
22283;BME280;11310;51.528;21.204;2023-03-01T02:02:20;101284.13;;;-5.09;100.00
22283;BME280;11310;51.528;21.204;2023-03-01T02:04:55;101276.44;;;-5.09;100.00
22283;BME280;11310;51.528;21.204;2023-03-01T02:07:26;101279.72;;;-5.13;100.00
22283;BME280;11310;51.528;21.204;2023-03-01T02:09:56;101274.41;;;-5.17;100.00
22283;BME280;11310;51.528;21.204;2023-03-01T02:12:25;101274.25;;;-5.22;100.00
22283;BME280;11310;51.528;21.204;2023-03-01T02:14:54;101275.16;;;-5.20;100.00
22283;BME280;11310;51.528;21.204;2023-03-01T02:17:24;101269.97;;;-5.23;100.00
22283;BME280;11310;51.528;21.204;2023-03-01T02:20:04;101265.44;;;-5.30;100.00
22283;BME280;11310;51.528;21.204;2023-03-01T02:22:38;101262.03;;;-5.29;100.00
22283;BME280;11310;51.528;21.204;2023-03-01T02:25:19;101253.53;;;-5.29;100.00
22283;BME280;11310;51.528;21.204;2023-03-01T02:27:53;101261.97;;;-5.32;100.00
22283;BME280;11310;51.528;21.204;2023-03-01T02:30:27;101254.16;;;-5.35;100.00
22283;BME280;11310;51.528;21.204;2023-03-01T02:32:57;101253.19;;;-5.38;100.00
22283;BME280;11310;51.528;21.204;2023-03-01T02:35:34;101257.41;;;-5.39;100.00
22283;BME280;11310;51.528;21.204;2023-03-01T02:38:06;101251.31;;;-5.42;100.00
22283;BME280;11310;51.528;21.204;2023-03-01T02:40:39;101257.19;;;-5.45;100.00
22283;BME280;11310;51.528;21.204;2023-03-01T02:43:10;101262.13;;;-5.49;100.00
22283;BME280;11310;51.528;21.204;2023-03-01T02:45:48;101267.97;;;-5.53;100.00
22283;BME280;11310;51.528;21.204;2023-03-01T02:48:17;101266.13;;;-5.56;100.00
22283;BME280;11310;51.528;21.204;2023-03-01T02:51:01;101266.13;;;-5.56;100.00
22283;BME280;11310;51.528;21.204;2023-03-01T02:53:38;101255.88;;;-5.57;100.00
22283;BME280;11310;51.528;21.204;2023-03-01T02:56:08;101256.84;;;-5.54;100.00
22283;BME280;11310;51.528;21.204;2023-03-01T02:58:43;101255.22;;;-5.52;100.00
22283;BME280;11310;51.528;21.204;2023-03-01T03:01:17;101251.75;;;-5.54;100.00
22283;BME280;11310;51.528;21.204;2023-03-01T03:03:45;101250.00;;;-5.55;100.00
22283;BME280;11310;51.528;21.204;2023-03-01T03:06:15;101247.44;;;-5.55;100.00
22283;BME280;11310;51.528;21.204;2023-03-01T03:08:43;101251.63;;;-5.57;100.00
22283;BME280;11310;51.528;21.204;2023-03-01T03:11:12;101245.66;;;-5.57;100.00
22283;BME280;11310;51.528;21.204;2023-03-01T03:13:40;101249.88;;;-5.58;100.00
22283;BME280;11310;51.528;21.204;2023-03-01T03:16:18;101244.78;;;-5.58;100.00
22283;BME280;11310;51.528;21.204;2023-03-01T03:18:47;101254.88;;;-5.61;100.00
22283;BME280;11310;51.528;21.204;2023-03-01T03:21:16;101250.50;;;-5.63;100.00
22283;BME280;11310;51.528;21.204;2023-03-01T03:23:44;101258.16;;;-5.65;100.00
22283;BME280;11310;51.528;21.204;2023-03-01T03:26:13;101254.78;;;-5.64;100.00
22283;BME280;11310;51.528;21.204;2023-03-01T03:28:43;101251.41;;;-5.63;100.00
22283;BME280;11310;51.528;21.204;2023-03-01T03:31:12;101255.63;;;-5.63;100.00
22283;BME280;11310;51.528;21.204;2023-03-01T03:33:42;101251.28;;;-5.66;100.00
22283;BME280;11310;51.528;21.204;2023-03-01T03:36:15;101247.75;;;-5.69;100.00
22283;BME280;11310;51.528;21.204;2023-03-01T03:38:45;101248.56;;;-5.70;100.00
22283;BME280;11310;51.528;21.204;2023-03-01T03:41:14;101249.25;;;-5.74;100.00
22283;BME280;11310;51.528;21.204;2023-03-01T03:43:44;101244.22;;;-5.73;100.00
22283;BME280;11310;51.528;21.204;2023-03-01T03:46:12;101245.06;;;-5.72;100.00
22283;BME280;11310;51.528;21.204;2023-03-01T03:48:44;101232.34;;;-5.71;100.00
22283;BME280;11310;51.528;21.204;2023-03-01T03:51:14;101242.75;;;-5.66;100.00
22283;BME280;11310;51.528;21.204;2023-03-01T03:53:44;101244.78;;;-5.58;100.00
22283;BME280;11310;51.528;21.204;2023-03-01T03:56:14;101232.91;;;-5.56;100.00
22283;BME280;11310;51.528;21.204;2023-03-01T03:58:42;101231.44;;;-5.51;100.00
22283;BME280;11310;51.528;21.204;2023-03-01T04:01:11;101228.06;;;-5.50;100.00
22283;BME280;11310;51.528;21.204;2023-03-01T04:03:40;101234.78;;;-5.52;100.00
22283;BME280;11310;51.528;21.204;2023-03-01T04:06:15;101233.97;;;-5.51;100.00
22283;BME280;11310;51.528;21.204;2023-03-01T04:08:44;101234.97;;;-5.47;100.00
22283;BME280;11310;51.528;21.204;2023-03-01T04:11:12;101235.94;;;-5.44;100.00
22283;BME280;11310;51.528;21.204;2023-03-01T04:13:57;101231.09;;;-5.36;100.00
22283;BME280;11310;51.528;21.204;2023-03-01T04:16:27;101230.34;;;-5.34;100.00
22283;BME280;11310;51.528;21.204;2023-03-01T04:18:56;101225.22;;;-5.34;100.00
22283;BME280;11310;51.528;21.204;2023-03-01T04:21:28;101222.72;;;-5.32;100.00
22283;BME280;11310;51.528;21.204;2023-03-01T04:23:57;101215.13;;;-5.31;100.00
22283;BME280;11310;51.528;21.204;2023-03-01T04:26:26;101211.66;;;-5.33;100.00
22283;BME280;11310;51.528;21.204;2023-03-01T04:28:55;101208.91;;;-5.37;100.00
22283;BME280;11310;51.528;21.204;2023-03-01T04:31:24;101215.88;;;-5.33;100.00
22283;BME280;11310;51.528;21.204;2023-03-01T04:33:54;101204.78;;;-5.34;100.00
22283;BME280;11310;51.528;21.204;2023-03-01T04:36:25;101205.59;;;-5.35;100.00
22283;BME280;11310;51.528;21.204;2023-03-01T04:38:56;101207.25;;;-5.35;100.00
22283;BME280;11310;51.528;21.204;2023-03-01T04:41:25;101204.00;;;-5.31;100.00
22283;BME280;11310;51.528;21.204;2023-03-01T04:43:53;101195.63;;;-5.27;100.00
22283;BME280;11310;51.528;21.204;2023-03-01T04:46:22;101192.22;;;-5.28;100.00
22283;BME280;11310;51.528;21.204;2023-03-01T04:48:51;101192.16;;;-5.29;100.00
22283;BME280;11310;51.528;21.204;2023-03-01T04:51:19;101189.69;;;-5.26;100.00
22283;BME280;11310;51.528;21.204;2023-03-01T04:53:47;101200.94;;;-5.23;100.00
22283;BME280;11310;51.528;21.204;2023-03-01T04:56:18;101198.53;;;-5.18;100.00
22283;BME280;11310;51.528;21.204;2023-03-01T04:58:46;101184.13;;;-5.15;100.00
22283;BME280;11310;51.528;21.204;2023-03-01T05:01:17;101185.19;;;-5.10;100.00
22283;BME280;11310;51.528;21.204;2023-03-01T05:03:48;101181.75;;;-5.10;100.00
22283;BME280;11310;51.528;21.204;2023-03-01T05:06:18;101181.69;;;-5.12;100.00
22283;BME280;11310;51.528;21.204;2023-03-01T05:08:47;101193.66;;;-5.11;100.00
22283;BME280;11310;51.528;21.204;2023-03-01T05:11:17;101185.97;;;-5.12;100.00
22283;BME280;11310;51.528;21.204;2023-03-01T05:13:46;101188.34;;;-5.17;100.00
22283;BME280;11310;51.528;21.204;2023-03-01T05:16:17;101193.47;;;-5.17;100.00
22283;BME280;11310;51.528;21.204;2023-03-01T05:18:47;101191.56;;;-5.22;100.00
22283;BME280;11310;51.528;21.204;2023-03-01T05:21:17;101189.88;;;-5.22;100.00
22283;BME280;11310;51.528;21.204;2023-03-01T05:23:46;101189.00;;;-5.22;100.00
22283;BME280;11310;51.528;21.204;2023-03-01T05:26:15;101183.81;;;-5.24;100.00
22283;BME280;11310;51.528;21.204;2023-03-01T05:29:01;101176.16;;;-5.24;100.00
22283;BME280;11310;51.528;21.204;2023-03-01T05:31:29;101166.88;;;-5.22;100.00
22283;BME280;11310;51.528;21.204;2023-03-01T05:33:58;101167.78;;;-5.20;100.00
22283;BME280;11310;51.528;21.204;2023-03-01T05:36:27;101170.50;;;-5.15;100.00
22283;BME280;11310;51.528;21.204;2023-03-01T05:38:56;101166.34;;;-5.12;100.00
22283;BME280;11310;51.528;21.204;2023-03-01T05:41:25;101165.53;;;-5.11;100.00
22283;BME280;11310;51.528;21.204;2023-03-01T05:43:53;101171.78;;;-5.03;100.00
22283;BME280;11310;51.528;21.204;2023-03-01T05:46:23;101171.22;;;-4.94;100.00
22283;BME280;11310;51.528;21.204;2023-03-01T05:48:52;101179.25;;;-4.84;100.00
22283;BME280;11310;51.528;21.204;2023-03-01T05:51:21;101179.69;;;-4.72;100.00
22283;BME280;11310;51.528;21.204;2023-03-01T05:53:50;101179.03;;;-4.65;100.00
22283;BME280;11310;51.528;21.204;2023-03-01T05:56:18;101181.91;;;-4.56;100.00
22283;BME280;11310;51.528;21.204;2023-03-01T05:58:49;101192.44;;;-4.47;100.00
22283;BME280;11310;51.528;21.204;2023-03-01T06:01:18;101200.47;;;-4.36;100.00
22283;BME280;11310;51.528;21.204;2023-03-01T06:03:48;101208.34;;;-4.30;100.00
22283;BME280;11310;51.528;21.204;2023-03-01T06:06:17;101210.19;;;-4.26;100.00
22283;BME280;11310;51.528;21.204;2023-03-01T06:08:45;101208.63;;;-4.23;100.00
22283;BME280;11310;51.528;21.204;2023-03-01T06:11:14;101208.75;;;-4.18;100.00
22283;BME280;11310;51.528;21.204;2023-03-01T06:13:43;101214.97;;;-4.10;100.00
22283;BME280;11310;51.528;21.204;2023-03-01T06:16:12;101212.75;;;-4.00;100.00
22283;BME280;11310;51.528;21.204;2023-03-01T06:18:41;101215.56;;;-3.92;100.00
22283;BME280;11310;51.528;21.204;2023-03-01T06:21:11;101214.91;;;-3.85;100.00
22283;BME280;11310;51.528;21.204;2023-03-01T06:23:41;101218.50;;;-3.79;100.00
22283;BME280;11310;51.528;21.204;2023-03-01T06:26:10;101206.66;;;-3.75;100.00
22283;BME280;11310;51.528;21.204;2023-03-01T06:28:38;101216.22;;;-3.70;100.00
22283;BME280;11310;51.528;21.204;2023-03-01T06:31:07;101219.84;;;-3.63;100.00
22283;BME280;11310;51.528;21.204;2023-03-01T06:33:36;101204.63;;;-3.59;100.00
22283;BME280;11310;51.528;21.204;2023-03-01T06:36:06;101203.84;;;-3.55;100.00
22283;BME280;11310;51.528;21.204;2023-03-01T06:38:38;101216.88;;;-3.49;100.00
22283;BME280;11310;51.528;21.204;2023-03-01T06:41:07;101220.47;;;-3.42;100.00
22283;BME280;11310;51.528;21.204;2023-03-01T06:43:36;101216.41;;;-3.36;100.00
22283;BME280;11310;51.528;21.204;2023-03-01T06:46:05;101216.56;;;-3.30;100.00
22283;BME280;11310;51.528;21.204;2023-03-01T06:48:34;101213.31;;;-3.23;100.00
22283;BME280;11310;51.528;21.204;2023-03-01T06:51:03;101212.63;;;-3.17;100.00
22283;BME280;11310;51.528;21.204;2023-03-01T06:53:32;101215.47;;;-3.08;100.00
22283;BME280;11310;51.528;21.204;2023-03-01T06:56:02;101208.00;;;-2.99;100.00
22283;BME280;11310;51.528;21.204;2023-03-01T06:58:31;101204.78;;;-2.92;100.00
22283;BME280;11310;51.528;21.204;2023-03-01T07:01:05;101211.91;;;-2.82;100.00
22283;BME280;11310;51.528;21.204;2023-03-01T07:03:34;101209.53;;;-2.75;100.00
22283;BME280;11310;51.528;21.204;2023-03-01T07:06:02;101196.97;;;-2.64;100.00
22283;BME280;11310;51.528;21.204;2023-03-01T07:08:31;101212.53;;;-2.58;100.00
22283;BME280;11310;51.528;21.204;2023-03-01T07:10:59;101203.28;;;-2.52;100.00
22283;BME280;11310;51.528;21.204;2023-03-01T07:13:31;101207.75;;;-2.43;100.00
22283;BME280;11310;51.528;21.204;2023-03-01T07:15:59;101205.41;;;-2.34;100.00
22283;BME280;11310;51.528;21.204;2023-03-01T07:18:28;101214.22;;;-2.25;100.00
22283;BME280;11310;51.528;21.204;2023-03-01T07:20:57;101204.13;;;-2.17;100.00
22283;BME280;11310;51.528;21.204;2023-03-01T07:23:25;101195.75;;;-2.09;100.00
22283;BME280;11310;51.528;21.204;2023-03-01T07:25:54;101202.81;;;-2.00;100.00
22283;BME280;11310;51.528;21.204;2023-03-01T07:28:24;101195.31;;;-1.91;100.00
22283;BME280;11310;51.528;21.204;2023-03-01T07:30:54;101188.66;;;-1.82;100.00
22283;BME280;11310;51.528;21.204;2023-03-01T07:33:24;101191.41;;;-1.74;100.00
22283;BME280;11310;51.528;21.204;2023-03-01T07:35:56;101192.41;;;-1.68;100.00
22283;BME280;11310;51.528;21.204;2023-03-01T07:38:25;101197.72;;;-1.59;100.00
22283;BME280;11310;51.528;21.204;2023-03-01T07:40:57;101197.16;;;-1.46;100.00
22283;BME280;11310;51.528;21.204;2023-03-01T07:43:27;101199.94;;;-1.37;100.00
22283;BME280;11310;51.528;21.204;2023-03-01T07:45:59;101201.91;;;-1.24;100.00
22283;BME280;11310;51.528;21.204;2023-03-01T07:48:29;101196.22;;;-1.08;100.00
22283;BME280;11310;51.528;21.204;2023-03-01T07:50:58;101203.31;;;-0.95;100.00
22283;BME280;11310;51.528;21.204;2023-03-01T07:53:27;101195.78;;;-0.86;100.00
22283;BME280;11310;51.528;21.204;2023-03-01T07:56:03;101196.00;;;-0.74;100.00
22283;BME280;11310;51.528;21.204;2023-03-01T07:58:34;101197.88;;;-0.65;100.00
22283;BME280;11310;51.528;21.204;2023-03-01T08:01:05;101203.25;;;-0.53;100.00
22283;BME280;11310;51.528;21.204;2023-03-01T08:03:34;101201.66;;;-0.44;100.00
22283;BME280;11310;51.528;21.204;2023-03-01T08:06:05;101199.25;;;-0.35;100.00
22283;BME280;11310;51.528;21.204;2023-03-01T08:08:34;101193.53;;;-0.17;100.00
22283;BME280;11310;51.528;21.204;2023-03-01T08:11:05;101188.66;;;0.01;100.00
22283;BME280;11310;51.528;21.204;2023-03-01T08:13:34;101186.28;;;0.16;99.94
22283;BME280;11310;51.528;21.204;2023-03-01T08:16:06;101186.47;;;0.28;99.78
22283;BME280;11310;51.528;21.204;2023-03-01T08:18:35;101194.38;;;0.40;99.21
22283;BME280;11310;51.528;21.204;2023-03-01T08:21:06;101189.31;;;0.49;98.00
22283;BME280;11310;51.528;21.204;2023-03-01T08:23:36;101188.69;;;0.65;97.72
22283;BME280;11310;51.528;21.204;2023-03-01T08:26:06;101185.53;;;0.92;96.03
22283;BME280;11310;51.528;21.204;2023-03-01T08:28:35;101189.56;;;1.45;93.73
22283;BME280;11310;51.528;21.204;2023-03-01T08:31:18;101173.75;;;2.18;91.36
22283;BME280;11310;51.528;21.204;2023-03-01T08:33:49;101175.91;;;3.33;84.61
22283;BME280;11310;51.528;21.204;2023-03-01T08:36:23;101176.75;;;4.19;81.56
22283;BME280;11310;51.528;21.204;2023-03-01T08:38:52;101173.81;;;6.17;71.45
22283;BME280;11310;51.528;21.204;2023-03-01T08:41:22;101168.28;;;7.73;62.61
22283;BME280;11310;51.528;21.204;2023-03-01T08:43:51;101159.22;;;8.86;57.26
22283;BME280;11310;51.528;21.204;2023-03-01T08:46:22;101159.16;;;9.63;53.70
22283;BME280;11310;51.528;21.204;2023-03-01T08:48:50;101159.72;;;9.76;52.39
22283;BME280;11310;51.528;21.204;2023-03-01T08:51:20;101155.75;;;9.60;53.81
22283;BME280;11310;51.528;21.204;2023-03-01T08:53:49;101153.13;;;9.95;53.26
22283;BME280;11310;51.528;21.204;2023-03-01T08:56:18;101156.78;;;10.85;51.35
22283;BME280;11310;51.528;21.204;2023-03-01T08:58:48;101155.53;;;11.53;48.58
22283;BME280;11310;51.528;21.204;2023-03-01T09:01:18;101162.94;;;11.68;48.37
22283;BME280;11310;51.528;21.204;2023-03-01T09:03:49;101160.63;;;11.59;48.42
22283;BME280;11310;51.528;21.204;2023-03-01T09:06:18;101160.63;;;11.86;48.24
22283;BME280;11310;51.528;21.204;2023-03-01T09:08:48;101169.53;;;12.80;46.27
22283;BME280;11310;51.528;21.204;2023-03-01T09:11:20;101156.06;;;13.33;44.36
22283;BME280;11310;51.528;21.204;2023-03-01T09:13:49;101159.78;;;13.51;44.07
22283;BME280;11310;51.528;21.204;2023-03-01T09:16:19;101147.63;;;13.68;44.10
22283;BME280;11310;51.528;21.204;2023-03-01T09:18:51;101153.28;;;14.22;42.66
22283;BME280;11310;51.528;21.204;2023-03-01T09:21:21;101153.41;;;14.39;42.91
22283;BME280;11310;51.528;21.204;2023-03-01T09:24:08;101154.69;;;14.69;42.64
22283;BME280;11310;51.528;21.204;2023-03-01T09:26:40;101150.25;;;15.08;41.52
22283;BME280;11310;51.528;21.204;2023-03-01T09:29:08;101164.88;;;15.15;41.12
22283;BME280;11310;51.528;21.204;2023-03-01T09:31:38;101154.44;;;15.31;41.44
22283;BME280;11310;51.528;21.204;2023-03-01T09:34:09;101152.84;;;15.64;40.86
22283;BME280;11310;51.528;21.204;2023-03-01T09:36:38;101154.06;;;15.92;40.72
22283;BME280;11310;51.528;21.204;2023-03-01T09:39:06;101139.44;;;16.02;40.32
22283;BME280;11310;51.528;21.204;2023-03-01T09:41:44;101152.19;;;15.77;37.28
22283;BME280;11310;51.528;21.204;2023-03-01T09:44:32;101151.72;;;15.32;37.37
22283;BME280;11310;51.528;21.204;2023-03-01T09:47:03;101143.81;;;15.51;41.00
22283;BME280;11310;51.528;21.204;2023-03-01T09:49:35;101138.47;;;15.69;40.25
22283;BME280;11310;51.528;21.204;2023-03-01T09:52:14;101140.22;;;15.87;39.47
22283;BME280;11310;51.528;21.204;2023-03-01T09:54:49;101144.25;;;15.77;40.42
22283;BME280;11310;51.528;21.204;2023-03-01T09:57:26;101145.09;;;15.05;40.58
22283;BME280;11310;51.528;21.204;2023-03-01T10:00:03;101153.44;;;14.58;41.63
22283;BME280;11310;51.528;21.204;2023-03-01T10:02:39;101145.41;;;14.79;41.06
22283;BME280;11310;51.528;21.204;2023-03-01T10:05:28;101144.69;;;14.96;39.80
22283;BME280;11310;51.528;21.204;2023-03-01T10:08:11;101145.22;;;15.02;38.70
22283;BME280;11310;51.528;21.204;2023-03-01T10:10:44;101135.66;;;15.18;41.77
22283;BME280;11310;51.528;21.204;2023-03-01T10:13:15;101134.81;;;15.36;35.10
22283;BME280;11310;51.528;21.204;2023-03-01T10:15:50;101127.13;;;15.67;40.05
22283;BME280;11310;51.528;21.204;2023-03-01T10:18:24;101126.84;;;15.55;40.45
22283;BME280;11310;51.528;21.204;2023-03-01T10:20:56;101113.78;;;15.52;35.99
22283;BME280;11310;51.528;21.204;2023-03-01T10:23:26;101114.78;;;15.66;40.65
22283;BME280;11310;51.528;21.204;2023-03-01T10:26:07;101109.28;;;15.71;36.99
22283;BME280;11310;51.528;21.204;2023-03-01T10:28:47;101110.28;;;15.33;36.68
22283;BME280;11310;51.528;21.204;2023-03-01T10:31:20;101104.94;;;15.34;40.90
22283;BME280;11310;51.528;21.204;2023-03-01T10:33:56;101103.69;;;15.77;40.20
22283;BME280;11310;51.528;21.204;2023-03-01T10:36:32;101105.56;;;15.75;36.75
22283;BME280;11310;51.528;21.204;2023-03-01T10:39:10;101099.66;;;15.34;38.50
22283;BME280;11310;51.528;21.204;2023-03-01T10:41:52;101084.09;;;15.10;37.48
22283;BME280;11310;51.528;21.204;2023-03-01T10:44:42;101085.97;;;15.79;34.15
22283;BME280;11310;51.528;21.204;2023-03-01T10:47:15;101100.03;;;15.96;38.26
22283;BME280;11310;51.528;21.204;2023-03-01T10:49:57;101091.44;;;16.25;34.77
22283;BME280;11310;51.528;21.204;2023-03-01T10:52:30;101094.47;;;16.35;36.93
22283;BME280;11310;51.528;21.204;2023-03-01T10:55:04;101083.72;;;16.55;37.12
22283;BME280;11310;51.528;21.204;2023-03-01T10:57:35;101083.59;;;16.73;37.24
22283;BME280;11310;51.528;21.204;2023-03-01T11:00:20;101078.63;;;17.14;33.66
22283;BME280;11310;51.528;21.204;2023-03-01T11:02:51;101081.22;;;17.46;30.17
22283;BME280;11310;51.528;21.204;2023-03-01T11:05:30;101072.22;;;17.49;36.04
22283;BME280;11310;51.528;21.204;2023-03-01T11:08:03;101074.81;;;17.50;33.97
22283;BME280;11310;51.528;21.204;2023-03-01T11:10:34;101072.75;;;17.24;35.94
22283;BME280;11310;51.528;21.204;2023-03-01T11:13:07;101080.97;;;17.80;34.03
22283;BME280;11310;51.528;21.204;2023-03-01T11:15:36;101077.78;;;18.47;34.70
22283;BME280;11310;51.528;21.204;2023-03-01T11:18:19;101063.91;;;18.84;30.02
22283;BME280;11310;51.528;21.204;2023-03-01T11:20:58;101066.69;;;18.68;33.98
22283;BME280;11310;51.528;21.204;2023-03-01T11:23:30;101060.03;;;18.75;33.09
22283;BME280;11310;51.528;21.204;2023-03-01T11:26:04;101060.91;;;18.76;33.43
22283;BME280;11310;51.528;21.204;2023-03-01T11:28:36;101050.28;;;19.02;33.06
22283;BME280;11310;51.528;21.204;2023-03-01T11:31:07;101060.53;;;19.08;33.66
22283;BME280;11310;51.528;21.204;2023-03-01T11:33:44;101057.63;;;19.39;31.41
22283;BME280;11310;51.528;21.204;2023-03-01T11:36:20;101052.03;;;19.56;31.94
22283;BME280;11310;51.528;21.204;2023-03-01T11:38:55;101049.47;;;19.55;33.18
22283;BME280;11310;51.528;21.204;2023-03-01T11:41:25;101051.34;;;19.79;32.81
22283;BME280;11310;51.528;21.204;2023-03-01T11:43:58;101045.09;;;20.05;31.29
22283;BME280;11310;51.528;21.204;2023-03-01T11:46:51;101043.53;;;20.28;28.17
22283;BME280;11310;51.528;21.204;2023-03-01T11:49:48;101045.69;;;20.23;27.58
22283;BME280;11310;51.528;21.204;2023-03-01T11:52:25;101042.69;;;20.52;32.03
22283;BME280;11310;51.528;21.204;2023-03-01T11:55:14;101040.59;;;20.68;29.07
22283;BME280;11310;51.528;21.204;2023-03-01T11:57:58;101040.25;;;20.85;29.17
22283;BME280;11310;51.528;21.204;2023-03-01T12:00:44;101032.41;;;20.71;29.74
22283;BME280;11310;51.528;21.204;2023-03-01T12:03:32;101027.72;;;20.62;29.83
22283;BME280;11310;51.528;21.204;2023-03-01T12:09:20;101024.19;;;20.62;29.43
22283;BME280;11310;51.528;21.204;2023-03-01T12:12:03;101023.63;;;20.69;29.60
22283;BME280;11310;51.528;21.204;2023-03-01T12:14:47;101024.59;;;20.94;29.54
22283;BME280;11310;51.528;21.204;2023-03-01T12:17:36;101029.31;;;21.14;26.63
22283;BME280;11310;51.528;21.204;2023-03-01T12:20:17;101022.31;;;20.87;29.47
22283;BME280;11310;51.528;21.204;2023-03-01T12:22:57;101025.22;;;20.97;29.84
22283;BME280;11310;51.528;21.204;2023-03-01T12:25:48;101019.53;;;21.02;29.93
22283;BME280;11310;51.528;21.204;2023-03-01T12:28:38;101014.50;;;20.61;27.08
22283;BME280;11310;51.528;21.204;2023-03-01T12:31:35;101018.47;;;20.30;26.86
22283;BME280;11310;51.528;21.204;2023-03-01T12:34:17;101012.50;;;20.14;30.32
22283;BME280;11310;51.528;21.204;2023-03-01T12:36:58;101008.91;;;20.15;30.71
22283;BME280;11310;51.528;21.204;2023-03-01T12:39:43;101005.47;;;20.38;28.78
22283;BME280;11310;51.528;21.204;2023-03-01T12:42:24;101011.00;;;20.48;28.78
22283;BME280;11310;51.528;21.204;2023-03-01T12:45:21;100995.00;;;20.48;26.86
22283;BME280;11310;51.528;21.204;2023-03-01T12:48:08;100998.31;;;20.39;28.57
22283;BME280;11310;51.528;21.204;2023-03-01T12:50:43;100997.34;;;20.02;32.32
22283;BME280;11310;51.528;21.204;2023-03-01T12:53:22;100994.59;;;20.04;31.11
22283;BME280;11310;51.528;21.204;2023-03-01T12:55:54;100991.06;;;20.03;32.26
22283;BME280;11310;51.528;21.204;2023-03-01T12:58:26;100989.53;;;19.23;28.40
22283;BME280;11310;51.528;21.204;2023-03-01T13:01:27;100995.13;;;19.32;31.26
22283;BME280;11310;51.528;21.204;2023-03-01T13:04:17;100991.63;;;19.44;29.12
22283;BME280;11310;51.528;21.204;2023-03-01T13:07:02;100994.13;;;18.80;30.91